Time;durP1;ratioP1;P1;durP2;ratioP2;P2;SDS_P1;SDS_P2;PMS_P1;PMS_P2;Temp;Humidity;BMP_temperature;BMP_pressure;BME280_temperature;BME280_humidity;BME280_pressure;Samples;Min_cycle;Max_cycle;Signal;HPM_P1;HPM_P2
2020/12/10 00:02:14;;;;;;;40.90;21.50;;;5.90;1.00;;;;;;5054663;28;20462;-56
2020/12/10 00:04:39;;;;;;;40.40;21.87;;;5.90;1.00;;;;;;5054382;28;20441;-67
2020/12/10 00:07:06;;;;;;;34.70;19.80;;;5.90;1.00;;;;;;5053600;28;20438;-56
2020/12/10 00:09:33;;;;;;;35.43;21.23;;;5.80;1.00;;;;;;5069834;28;20220;-56
2020/12/10 00:12:01;;;;;;;44.80;22.43;;;5.80;1.00;;;;;;5053649;28;20458;-56
2020/12/10 00:14:26;;;;;;;40.27;21.53;;;5.90;1.00;;;;;;5054528;28;20422;-66
2020/12/10 00:16:52;;;;;;;35.47;20.93;;;5.90;1.00;;;;;;5053738;28;20817;-56
2020/12/10 00:19:18;;;;;;;38.63;19.90;;;5.90;1.00;;;;;;5053443;28;20191;-55
2020/12/10 00:21:43;;;;;;;42.73;20.17;;;5.80;1.00;;;;;;5054569;28;20180;-65
2020/12/10 00:24:09;;;;;;;38.93;21.30;;;5.70;1.00;;;;;;5054419;28;20502;-66
2020/12/10 00:26:35;;;;;;;35.23;19.37;;;5.60;1.00;;;;;;5054237;28;20204;-56
2020/12/10 00:29:00;;;;;;;40.03;21.60;;;5.60;1.00;;;;;;5054025;28;20501;-66
2020/12/10 00:31:26;;;;;;;37.23;19.60;;;5.60;1.00;;;;;;5053328;28;20184;-55
2020/12/10 00:33:51;;;;;;;34.07;19.80;;;5.70;1.00;;;;;;5053617;28;20211;-66
2020/12/10 00:36:17;;;;;;;39.70;20.53;;;5.60;1.00;;;;;;5069770;28;20187;-66
2020/12/10 00:38:42;;;;;;;45.33;21.10;;;5.60;1.00;;;;;;5053918;28;20517;-66
2020/12/10 00:41:08;;;;;;;40.57;20.30;;;5.60;1.00;;;;;;5053995;28;20184;-56
2020/12/10 00:43:35;;;;;;;41.57;20.23;;;5.60;1.00;;;;;;5054111;28;20184;-66
2020/12/10 00:46:04;;;;;;;34.77;18.60;;;5.70;1.00;;;;;;5053447;28;20219;-66
2020/12/10 00:48:31;;;;;;;34.93;20.97;;;5.90;1.00;;;;;;5069528;28;20517;-66
2020/12/10 00:50:57;;;;;;;41.67;21.47;;;5.80;1.00;;;;;;5053999;28;20422;-56
2020/12/10 00:53:23;;;;;;;34.30;17.90;;;5.80;1.00;;;;;;5053015;28;20512;-65
2020/12/10 00:55:49;;;;;;;33.10;18.80;;;5.80;1.00;;;;;;5053968;28;20238;-66
2020/12/10 00:58:14;;;;;;;33.97;19.67;;;5.80;1.00;;;;;;5053698;28;20182;-65
2020/12/10 01:00:40;;;;;;;42.47;21.47;;;5.80;1.00;;;;;;5053913;28;20604;-56
2020/12/10 01:03:06;;;;;;;39.00;19.97;;;5.90;1.00;;;;;;5053907;28;20187;-56
2020/12/10 01:05:31;;;;;;;34.43;19.23;;;5.90;1.00;;;;;;5053763;28;20184;-66
2020/12/10 01:07:57;;;;;;;40.60;21.80;;;5.90;1.00;;;;;;5053884;28;20240;-67
2020/12/10 01:10:23;;;;;;;38.90;20.67;;;5.80;1.00;;;;;;5053956;28;20207;-57
2020/12/10 01:12:48;;;;;;;38.10;19.60;;;5.90;1.00;;;;;;5053414;28;20283;-56
2020/12/10 01:15:14;;;;;;;38.77;18.77;;;5.90;1.00;;;;;;5053381;28;20176;-66
2020/12/10 01:17:41;;;;;;;36.23;20.07;;;5.90;1.00;;;;;;5068299;28;20690;-66
2020/12/10 01:20:09;;;;;;;38.80;19.97;;;5.90;1.00;;;;;;5053871;28;20172;-58
2020/12/10 01:22:34;;;;;;;38.63;21.37;;;5.90;1.00;;;;;;5056476;28;20414;-56
2020/12/10 01:25:00;;;;;;;37.67;20.67;;;5.90;1.00;;;;;;5057681;28;20530;-66
2020/12/10 01:27:26;;;;;;;35.57;19.10;;;5.90;1.00;;;;;;5057814;28;20226;-58
2020/12/10 01:29:51;;;;;;;39.23;21.00;;;5.90;1.00;;;;;;5057901;28;20643;-66
2020/12/10 01:32:17;;;;;;;36.83;19.23;;;5.90;1.00;;;;;;5057163;28;20199;-57
2020/12/10 01:34:43;;;;;;;36.30;19.90;;;5.90;1.00;;;;;;5057667;28;20191;-58
2020/12/10 01:37:09;;;;;;;32.33;18.60;;;6.00;1.00;;;;;;5055830;28;20823;-67
2020/12/10 01:39:35;;;;;;;38.30;18.77;;;5.90;1.00;;;;;;5056445;28;20172;-67
2020/12/10 01:42:01;;;;;;;39.87;20.13;;;5.80;1.00;;;;;;5056945;28;20613;-54
2020/12/10 01:44:27;;;;;;;40.63;21.37;;;5.70;1.00;;;;;;5072726;28;20450;-66
2020/12/10 01:46:53;;;;;;;38.80;19.40;;;5.70;1.00;;;;;;5057421;28;20481;-56
2020/12/10 01:49:19;;;;;;;35.17;20.80;;;5.70;1.00;;;;;;5057107;28;20441;-66
2020/12/10 01:51:45;;;;;;;31.40;18.27;;;5.70;1.00;;;;;;5057312;28;20179;-66
2020/12/10 01:54:11;;;;;;;40.07;20.50;;;5.70;1.00;;;;;;5056855;28;20544;-57
2020/12/10 01:56:37;;;;;;;37.50;19.73;;;5.60;1.00;;;;;;5057108;28;20275;-56
2020/12/10 01:59:04;;;;;;;41.67;20.77;;;5.60;1.00;;;;;;5057359;28;20183;-67
2020/12/10 02:01:31;;;;;;;39.43;21.43;;;5.60;1.00;;;;;;5056728;28;20172;-56
2020/12/10 02:03:57;;;;;;;42.50;21.17;;;5.70;1.00;;;;;;5057185;28;20418;-67
2020/12/10 02:06:24;;;;;;;42.00;20.73;;;5.70;1.00;;;;;;5057178;28;20421;-56
2020/12/10 02:08:49;;;;;;;37.27;18.90;;;5.60;1.00;;;;;;5072496;28;20733;-57
2020/12/10 02:11:15;;;;;;;36.57;21.03;;;5.60;1.00;;;;;;5057109;28;20418;-56
2020/12/10 02:13:41;;;;;;;34.23;20.00;;;5.60;1.00;;;;;;5055912;28;20281;-66
2020/12/10 02:16:08;;;;;;;38.63;20.50;;;5.60;1.00;;;;;;5055803;28;20188;-66
2020/12/10 02:18:35;;;;;;;42.47;19.50;;;5.60;1.00;;;;;;5056312;28;20629;-56
2020/12/10 02:21:01;;;;;;;41.57;20.10;;;5.60;1.00;;;;;;5056757;28;20414;-67
2020/12/10 02:23:26;;;;;;;37.77;19.27;;;5.60;1.00;;;;;;5056375;28;20438;-56
2020/12/10 02:25:52;;;;;;;38.57;19.90;;;5.50;1.00;;;;;;5056697;28;20245;-56
2020/12/10 02:28:18;;;;;;;37.23;20.83;;;5.50;1.00;;;;;;5056565;28;20267;-57
2020/12/10 02:30:46;;;;;;;37.40;22.33;;;5.50;1.00;;;;;;5056678;28;20517;-56
2020/12/10 02:33:13;;;;;;;37.37;20.47;;;5.60;1.00;;;;;;5056145;28;20501;-56
2020/12/10 02:35:40;;;;;;;42.90;21.20;;;5.60;1.00;;;;;;5056079;28;20525;-56
2020/12/10 02:38:09;;;;;;;43.20;21.77;;;5.60;1.00;;;;;;5056529;28;20423;-66
2020/12/10 02:40:46;;;;;;;39.17;20.97;;;5.60;1.00;;;;;;5056284;28;20430;-66
2020/12/10 02:43:13;;;;;;;42.63;20.40;;;5.60;1.00;;;;;;5056014;28;20422;-66
2020/12/10 02:45:40;;;;;;;35.00;19.20;;;5.60;1.00;;;;;;5055664;28;20959;-56
2020/12/10 02:48:07;;;;;;;46.60;22.53;;;5.70;1.00;;;;;;5055943;28;20425;-66
2020/12/10 02:50:33;;;;;;;36.33;20.73;;;5.70;1.00;;;;;;5055617;28;20462;-66
2020/12/10 02:52:59;;;;;;;41.70;22.53;;;5.60;1.00;;;;;;5056037;28;20485;-66
2020/12/10 02:55:24;;;;;;;38.60;20.67;;;5.60;1.00;;;;;;5056099;28;20271;-66
2020/12/10 02:57:50;;;;;;;38.70;21.73;;;5.70;1.00;;;;;;5055408;28;20184;-67
2020/12/10 03:00:16;;;;;;;44.37;22.20;;;5.60;1.00;;;;;;5056063;28;20629;-56
2020/12/10 03:02:41;;;;;;;39.70;19.00;;;5.70;1.00;;;;;;5056003;28;20218;-66
2020/12/10 03:05:08;;;;;;;45.23;21.23;;;5.70;1.00;;;;;;5055461;28;20525;-56
2020/12/10 03:07:34;;;;;;;42.10;20.57;;;5.70;1.00;;;;;;5055499;28;20187;-67
2020/12/10 03:10:01;;;;;;;41.43;20.97;;;5.70;1.00;;;;;;5054931;28;20552;-55
2020/12/10 03:12:26;;;;;;;38.03;20.97;;;5.70;1.00;;;;;;5055797;28;20465;-56
2020/12/10 03:14:52;;;;;;;38.93;21.33;;;5.60;1.00;;;;;;5055584;28;20792;-66
2020/12/10 03:17:18;;;;;;;48.80;22.27;;;5.70;1.00;;;;;;5056004;28;20179;-66
2020/12/10 03:19:43;;;;;;;43.33;21.40;;;5.80;1.00;;;;;;5055726;28;20182;-66
2020/12/10 03:22:14;;;;;;;41.87;21.80;;;5.80;1.00;;;;;;5055792;28;20180;-66
2020/12/10 03:24:40;;;;;;;36.17;20.67;;;5.80;1.00;;;;;;5055761;28;20172;-67
2020/12/10 03:27:07;;;;;;;36.67;21.63;;;5.60;1.00;;;;;;5055416;28;20488;-56
2020/12/10 03:29:32;;;;;;;44.10;21.53;;;5.80;1.00;;;;;;5071312;28;20442;-56
2020/12/10 03:31:58;;;;;;;34.83;21.13;;;5.80;1.00;;;;;;5070596;28;20442;-56
2020/12/10 03:34:24;;;;;;;46.77;23.37;;;5.80;1.00;;;;;;5055475;28;20183;-66
2020/12/10 03:36:55;;;;;;;39.97;21.63;;;5.80;1.00;;;;;;5070671;28;20426;-56
2020/12/10 03:39:23;;;;;;;41.53;21.37;;;5.70;1.00;;;;;;5054744;28;20254;-56
2020/12/10 03:41:49;;;;;;;38.77;21.63;;;5.80;1.00;;;;;;5055221;28;20505;-66
2020/12/10 03:44:16;;;;;;;42.67;21.20;;;5.80;1.00;;;;;;5054162;28;20434;-66
2020/12/10 03:46:41;;;;;;;42.60;21.83;;;5.80;1.00;;;;;;5054235;28;20811;-66
2020/12/10 03:49:08;;;;;;;40.43;21.20;;;5.70;1.00;;;;;;5055229;28;20565;-56
2020/12/10 03:51:34;;;;;;;40.70;21.50;;;5.70;1.00;;;;;;5055153;28;20255;-56
2020/12/10 03:53:59;;;;;;;44.57;22.00;;;5.70;1.00;;;;;;5053900;28;20541;-66
2020/12/10 03:56:25;;;;;;;39.00;21.20;;;5.60;1.00;;;;;;5054600;28;20513;-56
2020/12/10 03:58:51;;;;;;;44.10;23.80;;;5.70;1.00;;;;;;5055034;28;20172;-56
2020/12/10 04:01:17;;;;;;;44.03;22.17;;;5.70;1.00;;;;;;5052724;28;20263;-67
2020/12/10 04:03:43;;;;;;;44.60;22.33;;;5.70;1.00;;;;;;5046507;28;20553;-56
2020/12/10 04:06:09;;;;;;;42.97;22.37;;;5.70;1.00;;;;;;5055062;28;20414;-66
2020/12/10 04:08:35;;;;;;;40.77;22.80;;;5.80;1.00;;;;;;5055328;28;20427;-66
2020/12/10 04:11:01;;;;;;;44.80;22.70;;;5.80;1.00;;;;;;5055289;28;20422;-65
2020/12/10 04:13:26;;;;;;;36.60;19.93;;;5.80;1.00;;;;;;5054749;28;20554;-56
2020/12/10 04:15:52;;;;;;;43.63;21.23;;;5.80;1.00;;;;;;5054908;28;20259;-66
2020/12/10 04:18:18;;;;;;;44.10;21.40;;;5.80;1.00;;;;;;5070412;28;20255;-66
2020/12/10 04:20:43;;;;;;;42.07;23.03;;;5.70;1.00;;;;;;5054794;28;20172;-56
2020/12/10 04:23:09;;;;;;;37.57;20.80;;;5.80;1.00;;;;;;5054274;28;20238;-66
2020/12/10 04:25:35;;;;;;;45.73;21.60;;;5.70;1.00;;;;;;5053638;28;20262;-56
2020/12/10 04:28:00;;;;;;;45.37;22.53;;;5.60;1.00;;;;;;5054448;28;20180;-55
2020/12/10 04:30:26;;;;;;;43.47;23.30;;;5.60;1.00;;;;;;5054160;28;20180;-56
2020/12/10 04:32:51;;;;;;;46.33;22.07;;;5.50;1.00;;;;;;5054095;28;20200;-66
2020/12/10 04:35:17;;;;;;;41.60;22.10;;;5.50;1.00;;;;;;5054086;28;20222;-55
2020/12/10 04:37:43;;;;;;;47.20;22.93;;;5.60;1.00;;;;;;5054294;28;20172;-56
2020/12/10 04:40:09;;;;;;;49.67;24.47;;;5.60;1.00;;;;;;5054381;28;20192;-55
2020/12/10 04:42:36;;;;;;;41.00;21.17;;;5.50;1.00;;;;;;5054227;28;20525;-55
2020/12/10 04:45:02;;;;;;;44.30;22.47;;;5.40;1.00;;;;;;5053258;28;20172;-56
2020/12/10 04:47:29;;;;;;;39.73;22.30;;;5.30;1.00;;;;;;5053496;28;20434;-56
2020/12/10 04:49:56;;;;;;;52.37;24.73;;;5.20;1.00;;;;;;5054186;28;20425;-56
2020/12/10 04:52:22;;;;;;;46.73;24.47;;;5.20;1.00;;;;;;5054002;28;20462;-56
2020/12/10 04:54:49;;;;;;;42.87;22.37;;;5.10;1.00;;;;;;5052840;28;20831;-65
2020/12/10 04:57:17;;;;;;;49.10;24.50;;;5.20;1.00;;;;;;5052599;28;20778;-56
2020/12/10 04:59:42;;;;;;;44.83;22.93;;;5.20;1.00;;;;;;5053079;28;20921;-65
2020/12/10 05:02:12;;;;;;;45.03;24.13;;;5.20;1.00;;;;;;5052950;28;20513;-62
2020/12/10 05:04:38;;;;;;;48.10;24.83;;;5.20;1.00;;;;;;5053690;28;20176;-62
2020/12/10 05:07:04;;;;;;;40.77;23.13;;;5.20;1.00;;;;;;5053985;28;20433;-57
2020/12/10 05:09:30;;;;;;;44.80;21.80;;;5.20;1.00;;;;;;5053418;28;20521;-56
2020/12/10 05:11:56;;;;;;;47.73;24.10;;;5.10;1.00;;;;;;5053885;28;20187;-62
2020/12/10 05:14:22;;;;;;;48.07;22.00;;;5.00;1.00;;;;;;5053849;28;20240;-56
2020/12/10 05:17:07;;;;;;;45.03;24.23;;;4.80;1.00;;;;;;5053058;28;20237;-56
2020/12/10 05:19:33;;;;;;;41.90;20.43;;;4.70;1.00;;;;;;5053070;28;20461;-55
2020/12/10 05:22:06;;;;;;;39.40;20.97;;;4.70;1.00;;;;;;5052717;28;20452;-56
2020/12/10 05:24:35;;;;;;;43.03;22.33;;;4.70;1.00;;;;;;5053906;28;20235;-55
2020/12/10 05:27:21;;;;;;;40.90;23.20;;;4.60;1.00;;;;;;5052766;28;20437;-69
2020/12/10 05:29:48;;;;;;;38.13;20.67;;;4.60;1.00;;;;;;5053381;28;20430;-56
2020/12/10 05:32:34;;;;;;;44.10;22.20;;;4.60;1.00;;;;;;5052738;28;20493;-56
2020/12/10 05:35:22;;;;;;;45.80;21.50;;;4.60;1.00;;;;;;5052414;28;20422;-56
2020/12/10 05:37:50;;;;;;;47.90;22.17;;;4.70;1.00;;;;;;5053525;28;20414;-56
2020/12/10 05:40:16;;;;;;;41.27;21.17;;;4.60;1.00;;;;;;5053103;28;20426;-56
2020/12/10 05:42:50;;;;;;;47.27;25.23;;;4.60;1.00;;;;;;5053362;28;20572;-55
2020/12/10 05:45:20;;;;;;;44.43;22.27;;;4.60;1.00;;;;;;5053203;28;20780;-55
2020/12/10 05:47:48;;;;;;;45.57;24.90;;;4.50;1.00;;;;;;5051327;28;20431;-55
2020/12/10 05:50:16;;;;;;;41.93;22.43;;;4.50;1.00;;;;;;5049448;28;20425;-66
2020/12/10 05:52:49;;;;;;;43.00;22.50;;;4.60;1.00;;;;;;5050636;28;20477;-66
2020/12/10 05:55:17;;;;;;;43.03;20.70;;;4.50;1.00;;;;;;5051226;28;20866;-55
2020/12/10 05:57:43;;;;;;;47.13;21.73;;;4.50;1.00;;;;;;5053281;28;20775;-65
2020/12/10 06:00:09;;;;;;;55.30;25.77;;;4.40;1.00;;;;;;5052959;28;20427;-65
2020/12/10 06:02:35;;;;;;;46.50;23.93;;;4.40;1.00;;;;;;5053347;28;20815;-65
2020/12/10 06:05:02;;;;;;;42.93;22.27;;;4.40;1.00;;;;;;5051388;28;20510;-69
2020/12/10 06:07:28;;;;;;;46.43;23.13;;;4.50;1.00;;;;;;5052415;28;20442;-55
2020/12/10 06:09:54;;;;;;;41.43;20.97;;;4.60;1.00;;;;;;5056103;28;20912;-55
2020/12/10 06:12:24;;;;;;;43.03;22.57;;;4.50;1.00;;;;;;5056730;28;20204;-56
2020/12/10 06:14:59;;;;;;;43.00;22.80;;;4.40;1.00;;;;;;5056653;28;20439;-56
2020/12/10 06:17:25;;;;;;;45.20;21.77;;;4.30;1.00;;;;;;5056319;28;20875;-66
2020/12/10 06:19:51;;;;;;;41.60;22.27;;;6.00;1.00;;;;;;5056499;28;20986;-70
2020/12/10 06:22:27;;;;;;;40.27;21.10;;;4.50;1.00;;;;;;5056972;28;20418;-66
2020/12/10 06:25:03;;;;;;;40.20;20.50;;;4.60;1.00;;;;;;5056836;28;20176;-56
2020/12/10 06:27:30;;;;;;;48.60;22.43;;;4.60;1.00;;;;;;5055925;28;20503;-53
2020/12/10 06:30:21;;;;;;;41.83;20.97;;;4.60;1.00;;;;;;5072109;28;20503;-54
2020/12/10 06:32:51;;;;;;;42.13;20.53;;;4.50;1.00;;;;;;5055864;28;20453;-61
2020/12/10 06:35:26;;;;;;;51.00;24.87;;;4.60;1.00;;;;;;5056139;28;20530;-63
2020/12/10 06:37:51;;;;;;;36.30;20.90;;;4.60;1.00;;;;;;5056093;28;20456;-62
2020/12/10 06:40:47;;;;;;;43.40;22.70;;;4.70;1.00;;;;;;5056437;28;20898;-62
2020/12/10 06:43:13;;;;;;;41.40;23.13;;;4.60;1.00;;;;;;5055549;28;20192;-62
2020/12/10 06:45:41;;;;;;;42.50;22.90;;;4.70;1.00;;;;;;5055768;28;20466;-62
2020/12/10 06:48:12;;;;;;;39.13;20.67;;;4.70;1.00;;;;;;5055742;28;20295;-54
2020/12/10 06:50:39;;;;;;;43.60;21.40;;;4.50;1.00;;;;;;5050217;28;20426;-54
2020/12/10 06:53:20;;;;;;;43.03;21.50;;;4.60;1.00;;;;;;5050665;28;20455;-54
2020/12/10 06:55:58;;;;;;;48.40;23.17;;;4.60;1.00;;;;;;5051564;28;20414;-62
2020/12/10 06:58:37;;;;;;;45.87;23.43;;;4.70;1.00;;;;;;5071570;28;20438;-55
2020/12/10 07:01:22;;;;;;;40.40;21.03;;;4.80;1.00;;;;;;5071509;28;20888;-62
2020/12/10 07:03:51;;;;;;;42.63;23.30;;;5.00;1.00;;;;;;5056361;28;20430;-53
2020/12/10 07:06:21;;;;;;;33.73;20.07;;;5.00;1.00;;;;;;5055948;28;20434;-54
2020/12/10 07:09:07;;;;;;;36.87;19.50;;;5.00;1.00;;;;;;5071874;28;21132;-53
2020/12/10 07:11:37;;;;;;;38.97;19.70;;;4.80;1.00;;;;;;5055894;28;20426;-54
2020/12/10 07:14:21;;;;;;;43.07;21.30;;;4.80;1.00;;;;;;5055941;28;20452;-61
2020/12/10 07:16:47;;;;;;;45.57;20.50;;;4.70;1.00;;;;;;5070790;28;20472;-60
2020/12/10 07:19:12;;;;;;;41.80;19.83;;;4.80;1.00;;;;;;5055462;28;20419;-61
2020/12/10 07:21:38;;;;;;;42.30;20.70;;;4.70;1.00;;;;;;5055113;28;20172;-61
2020/12/10 07:24:03;;;;;;;44.90;21.70;;;4.60;1.00;;;;;;5055808;28;20521;-54
2020/12/10 07:26:29;;;;;;;39.23;20.50;;;4.60;1.00;;;;;;5054069;28;20219;-54
2020/12/10 07:28:55;;;;;;;41.43;21.70;;;4.60;1.00;;;;;;5055220;28;20179;-53
2020/12/10 07:31:20;;;;;;;35.90;19.17;;;4.60;1.00;;;;;;5055450;28;20736;-53
2020/12/10 07:33:46;;;;;;;33.50;20.23;;;4.60;1.00;;;;;;5055411;28;20195;-53
2020/12/10 07:36:12;;;;;;;38.57;20.97;;;4.60;1.00;;;;;;5055400;28;20206;-61
2020/12/10 07:38:44;;;;;;;41.43;21.20;;;4.70;1.00;;;;;;5071345;28;20183;-63
2020/12/10 07:41:10;;;;;;;41.13;20.73;;;4.80;1.00;;;;;;5054968;28;20180;-53
2020/12/10 07:43:45;;;;;;;41.67;20.47;;;4.90;1.00;;;;;;5055293;28;21010;-53
2020/12/10 07:46:12;;;;;;;38.87;19.97;;;4.90;1.00;;;;;;5054621;28;20617;-53
2020/12/10 07:48:39;;;;;;;40.10;19.90;;;5.00;1.00;;;;;;5055313;28;20964;-61
2020/12/10 07:51:05;;;;;;;41.33;21.97;;;5.00;1.00;;;;;;5055474;28;20509;-53
2020/12/10 07:53:30;;;;;;;37.90;19.43;;;5.10;1.00;;;;;;5055206;28;20871;-62
2020/12/10 07:56:03;;;;;;;32.80;19.00;;;5.20;1.00;;;;;;5055000;28;20414;-62
2020/12/10 07:58:51;;;;;;;38.47;19.20;;;5.30;1.00;;;;;;5055166;28;20561;-62
2020/12/10 08:01:18;;;;;;;40.70;20.73;;;5.20;1.00;;;;;;5054080;28;20416;-62
2020/12/10 08:03:55;;;;;;;35.43;20.20;;;5.30;1.00;;;;;;5055050;28;20910;-53
2020/12/10 08:06:22;;;;;;;36.57;20.23;;;5.30;1.00;;;;;;5055139;28;20449;-62
2020/12/10 08:08:58;;;;;;;39.27;20.70;;;5.40;1.00;;;;;;5054908;28;20491;-61
2020/12/10 08:11:25;;;;;;;38.63;20.43;;;5.30;1.00;;;;;;5054658;28;20457;-53
2020/12/10 08:13:53;;;;;;;39.00;20.80;;;5.40;1.00;;;;;;5053602;28;20472;-54
2020/12/10 08:16:19;;;;;;;38.70;21.60;;;5.30;1.00;;;;;;5054636;28;20489;-55
2020/12/10 08:18:45;;;;;;;39.40;19.50;;;5.20;1.00;;;;;;5054715;28;20510;-62
2020/12/10 08:21:10;;;;;;;39.20;19.87;;;5.10;1.00;;;;;;5054480;28;20259;-64
2020/12/10 08:23:44;;;;;;;41.70;23.70;;;5.00;1.00;;;;;;5054412;28;20168;-61
2020/12/10 08:26:12;;;;;;;44.10;21.50;;;5.00;1.00;;;;;;5054629;28;20180;-63
2020/12/10 08:28:38;;;;;;;39.37;20.63;;;4.90;1.00;;;;;;5053309;28;20438;-53
2020/12/10 08:31:05;;;;;;;40.30;21.87;;;4.80;1.00;;;;;;5054187;28;20418;-53
2020/12/10 08:33:37;;;;;;;41.03;20.80;;;4.60;1.00;;;;;;5054478;28;20829;-53
2020/12/10 08:36:04;;;;;;;43.30;21.20;;;4.50;1.00;;;;;;5054251;28;20415;-52
2020/12/10 08:38:30;;;;;;;46.50;22.30;;;4.50;1.00;;;;;;5054195;28;20952;-53
2020/12/10 08:40:57;;;;;;;43.80;21.40;;;4.70;1.00;;;;;;5053685;28;20434;-61
2020/12/10 08:43:23;;;;;;;41.73;22.43;;;4.80;1.00;;;;;;5053864;28;20430;-53
2020/12/10 08:45:50;;;;;;;44.90;21.20;;;4.70;1.00;;;;;;5053897;28;20462;-53
2020/12/10 08:48:24;;;;;;;44.93;21.30;;;4.70;1.00;;;;;;5053953;28;20418;-53
2020/12/10 08:50:56;;;;;;;41.67;23.70;;;4.80;1.00;;;;;;5053906;28;20398;-62
2020/12/10 08:53:22;;;;;;;43.40;21.20;;;4.90;1.00;;;;;;5053816;28;20450;-62
2020/12/10 08:55:54;;;;;;;44.37;22.63;;;5.10;1.00;;;;;;5053017;28;20449;-53
2020/12/10 08:58:28;;;;;;;43.33;21.60;;;5.20;1.00;;;;;;5052308;28;20472;-53
2020/12/10 09:00:56;;;;;;;40.73;21.27;;;5.30;1.00;;;;;;5069615;28;20425;-53
2020/12/10 09:03:23;;;;;;;38.30;19.90;;;5.20;1.00;;;;;;5053894;28;20426;-53
2020/12/10 09:05:52;;;;;;;41.03;21.40;;;5.20;1.00;;;;;;5053393;28;20445;-53
2020/12/10 09:08:18;;;;;;;42.50;23.57;;;5.10;1.00;;;;;;5053765;28;20473;-54
2020/12/10 09:10:44;;;;;;;43.17;22.53;;;5.10;1.00;;;;;;5053697;28;20521;-61
2020/12/10 09:13:09;;;;;;;39.27;21.17;;;5.20;1.00;;;;;;5053851;28;20549;-62
2020/12/10 09:15:36;;;;;;;46.20;25.20;;;5.20;1.00;;;;;;5053945;28;20168;-54
2020/12/10 09:18:01;;;;;;;38.27;22.17;;;5.20;1.00;;;;;;5053932;28;20473;-54
2020/12/10 09:20:27;;;;;;;41.83;22.07;;;5.30;1.00;;;;;;5053933;28;20445;-61
2020/12/10 09:22:52;;;;;;;40.13;21.60;;;5.40;1.00;;;;;;5053774;28;20309;-54
2020/12/10 09:25:18;;;;;;;43.80;22.70;;;5.40;1.00;;;;;;5053696;28;20200;-62
2020/12/10 09:27:44;;;;;;;42.30;22.10;;;5.50;1.00;;;;;;5053753;28;20179;-55
2020/12/10 09:30:11;;;;;;;42.47;22.43;;;5.60;1.00;;;;;;5054266;28;20179;-62
2020/12/10 09:32:40;;;;;;;43.00;21.87;;;5.60;1.00;;;;;;5054760;28;20574;-62
2020/12/10 09:35:11;;;;;;;41.73;21.80;;;5.70;1.00;;;;;;5053895;28;20418;-63
2020/12/10 09:37:38;;;;;;;39.97;22.57;;;5.70;1.00;;;;;;5053584;28;20797;-63
2020/12/10 09:40:06;;;;;;;46.53;25.10;;;5.60;1.00;;;;;;5052994;28;20935;-62
2020/12/10 09:42:34;;;;;;;47.10;23.33;;;5.70;1.00;;;;;;5053539;28;20448;-54
2020/12/10 09:44:59;;;;;;;43.40;21.77;;;5.70;1.00;;;;;;5057028;28;20508;-63
2020/12/10 09:47:25;;;;;;;44.97;24.70;;;5.60;1.00;;;;;;5057484;28;20900;-63
2020/12/10 09:49:51;;;;;;;42.90;22.00;;;5.60;1.00;;;;;;5057335;28;20184;-63
2020/12/10 09:52:17;;;;;;;41.27;22.27;;;5.60;1.00;;;;;;5057250;28;22135;-55
2020/12/10 09:59:45;;;;;;;45.23;23.10;;;5.40;1.00;;;;;;5057461;28;20554;-54
2020/12/10 10:02:11;;;;;;;40.70;21.53;;;5.40;1.00;;;;;;5056113;28;20422;-62
2020/12/10 10:04:36;;;;;;;43.27;22.70;;;5.40;1.00;;;;;;5072761;28;20612;-62
2020/12/10 10:07:06;;;;;;;51.73;21.13;;;5.50;1.00;;;;;;5056103;28;20266;-53
2020/12/10 10:09:33;;;;;;;44.67;22.97;;;5.70;1.00;;;;;;5056677;28;20609;-62
2020/12/10 10:11:58;;;;;;;41.73;22.00;;;5.80;1.00;;;;;;5056759;28;20434;-62
2020/12/10 10:14:24;;;;;;;32.37;21.00;;;5.90;1.00;;;;;;5056818;28;20548;-54
2020/12/10 10:16:49;;;;;;;38.73;20.97;;;5.90;1.00;;;;;;5072655;28;20180;-54
2020/12/10 10:19:15;;;;;;;39.37;21.67;;;5.90;1.00;;;;;;5056923;28;20187;-62
2020/12/10 10:21:41;;;;;;;40.80;20.50;;;6.00;1.00;;;;;;5056877;28;20179;-54
2020/12/10 10:24:09;;;;;;;41.97;21.67;;;6.10;1.00;;;;;;5056785;28;20577;-62
2020/12/10 10:26:34;;;;;;;43.47;22.47;;;6.10;1.00;;;;;;5056661;28;20187;-63
2020/12/10 10:29:02;;;;;;;40.97;21.43;;;6.20;1.00;;;;;;5056914;28;20891;-53
2020/12/10 10:31:28;;;;;;;44.60;25.73;;;6.10;1.00;;;;;;5056641;28;20427;-61
2020/12/10 10:33:53;;;;;;;46.97;23.50;;;5.70;1.00;;;;;;5055909;28;20773;-62
2020/12/10 10:36:21;;;;;;;40.20;22.57;;;5.60;1.00;;;;;;5056652;28;20172;-54
2020/12/10 10:38:47;;;;;;;40.80;21.70;;;5.60;1.00;;;;;;5056635;28;20248;-62
2020/12/10 10:41:13;;;;;;;40.13;22.50;;;5.70;1.00;;;;;;5056736;28;20426;-64
2020/12/10 10:43:39;;;;;;;42.70;20.80;;;5.60;1.00;;;;;;5056572;28;20484;-62
2020/12/10 10:46:04;;;;;;;41.53;20.63;;;5.50;1.00;;;;;;5056498;28;20239;-54
2020/12/10 10:48:30;;;;;;;44.83;22.60;;;5.40;1.00;;;;;;5055889;28;20196;-54
2020/12/10 10:50:57;;;;;;;37.07;21.70;;;5.40;1.00;;;;;;5056444;28;20183;-62
2020/12/10 10:53:22;;;;;;;43.87;22.60;;;5.50;1.00;;;;;;5056415;28;20269;-54
2020/12/10 10:55:49;;;;;;;41.53;20.93;;;5.60;1.00;;;;;;5056308;28;20410;-54
2020/12/10 10:58:15;;;;;;;47.00;23.20;;;5.60;1.00;;;;;;5056591;28;20184;-62
2020/12/10 11:00:40;;;;;;;45.67;23.10;;;5.70;1.00;;;;;;5056341;28;20479;-64
2020/12/10 11:03:06;;;;;;;50.17;22.40;;;5.60;1.00;;;;;;5056561;28;20466;-66
2020/12/10 11:05:32;;;;;;;49.93;23.70;;;5.70;1.00;;;;;;5056233;28;20486;-54
2020/12/10 11:07:58;;;;;;;49.87;26.10;;;5.70;1.00;;;;;;5055711;28;20203;-54
2020/12/10 11:10:24;;;;;;;49.10;25.13;;;5.80;1.00;;;;;;5056371;28;20180;-55
2020/12/10 11:12:52;;;;;;;50.67;23.77;;;5.80;1.00;;;;;;5055311;28;20547;-59
2020/12/10 11:15:18;;;;;;;46.80;25.00;;;5.80;1.00;;;;;;5056222;28;20896;-55
2020/12/10 11:17:43;;;;;;;53.87;23.97;;;5.80;1.00;;;;;;5056448;28;20426;-56
2020/12/10 11:20:09;;;;;;;45.97;24.73;;;5.80;1.00;;;;;;5056405;28;20502;-54
2020/12/10 11:22:37;;;;;;;44.80;23.80;;;5.70;1.00;;;;;;5056153;28;20235;-55
2020/12/10 11:25:04;;;;;;;48.47;23.70;;;5.60;1.00;;;;;;5056376;28;20181;-54
2020/12/10 11:27:30;;;;;;;51.70;25.87;;;5.70;1.00;;;;;;5055980;28;20448;-55
2020/12/10 11:29:56;;;;;;;46.50;24.13;;;5.80;1.00;;;;;;5055880;28;20430;-54
2020/12/10 11:32:22;;;;;;;50.13;25.13;;;5.70;1.00;;;;;;5055194;28;20196;-54
2020/12/10 11:34:48;;;;;;;48.70;24.70;;;5.70;1.00;;;;;;5055315;28;20437;-54
2020/12/10 11:37:13;;;;;;;49.33;24.03;;;5.50;1.00;;;;;;5055873;28;20171;-54
2020/12/10 11:39:39;;;;;;;45.93;20.90;;;5.40;1.00;;;;;;5055843;28;20601;-54
2020/12/10 11:42:04;;;;;;;46.90;23.27;;;5.40;1.00;;;;;;5055698;28;20263;-54
2020/12/10 11:44:30;;;;;;;47.27;23.33;;;5.30;1.00;;;;;;5055890;28;20172;-54
2020/12/10 11:46:56;;;;;;;47.30;22.30;;;5.00;1.00;;;;;;5055434;28;20273;-54
2020/12/10 11:49:21;;;;;;;54.17;25.90;;;5.00;1.00;;;;;;5054888;28;20176;-54
2020/12/10 11:51:47;;;;;;;46.43;22.93;;;5.10;1.00;;;;;;5071233;28;20229;-54
2020/12/10 11:54:12;;;;;;;46.70;23.70;;;5.00;1.00;;;;;;5055441;28;20203;-53
2020/12/10 11:56:38;;;;;;;51.73;24.57;;;5.00;1.00;;;;;;5055980;28;20168;-54
2020/12/10 11:59:04;;;;;;;49.53;23.77;;;5.00;1.00;;;;;;5055356;28;20176;-54
2020/12/10 12:01:29;;;;;;;52.17;23.43;;;5.00;1.00;;;;;;5055601;28;20175;-55
2020/12/10 12:03:55;;;;;;;44.80;22.63;;;4.90;1.00;;;;;;5055354;28;20176;-55
2020/12/10 12:06:22;;;;;;;48.87;21.07;;;4.90;1.00;;;;;;5054969;28;20214;-55
2020/12/10 12:08:49;;;;;;;44.60;22.43;;;4.80;1.00;;;;;;5055149;28;20490;-54
2020/12/10 12:11:15;;;;;;;44.27;21.70;;;4.90;1.00;;;;;;5054398;28;20511;-54
2020/12/10 12:13:40;;;;;;;44.53;22.90;;;5.00;1.00;;;;;;5053496;28;20466;-54
2020/12/10 12:16:06;;;;;;;48.80;21.80;;;5.10;1.00;;;;;;5054729;28;20191;-53
2020/12/10 12:18:32;;;;;;;47.30;21.40;;;5.10;1.00;;;;;;5055107;28;20176;-54
2020/12/10 12:20:58;;;;;;;41.33;20.57;;;5.00;1.00;;;;;;5054676;28;20422;-54
2020/12/10 12:23:23;;;;;;;43.37;20.50;;;4.90;1.00;;;;;;5054759;28;20176;-54
2020/12/10 12:25:49;;;;;;;46.60;22.07;;;4.90;1.00;;;;;;5054955;28;20180;-53
2020/12/10 12:28:15;;;;;;;48.43;22.67;;;4.80;1.00;;;;;;5054579;28;20172;-53
2020/12/10 12:30:40;;;;;;;51.23;22.77;;;4.80;1.00;;;;;;5053400;28;20502;-54
2020/12/10 12:33:06;;;;;;;52.13;22.90;;;4.70;1.00;;;;;;5054017;28;20207;-54
2020/12/10 12:35:31;;;;;;;48.03;22.97;;;4.80;1.00;;;;;;5054035;28;20185;-53
2020/12/10 12:37:57;;;;;;;42.13;20.57;;;4.80;1.00;;;;;;5054222;28;20180;-54
2020/12/10 12:40:23;;;;;;;41.90;21.27;;;4.90;1.00;;;;;;5054658;28;20172;-54
2020/12/10 12:42:49;;;;;;;44.07;22.87;;;4.90;1.00;;;;;;5054312;28;20430;-54
2020/12/10 12:45:14;;;;;;;57.37;22.33;;;6.70;1.00;;;;;;5054205;28;20223;-54
2020/12/10 12:47:43;;;;;;;42.93;21.53;;;5.00;1.00;;;;;;5054292;28;20171;-54
2020/12/10 12:50:09;;;;;;;44.20;21.60;;;5.10;1.00;;;;;;5054155;28;20648;-54
2020/12/10 12:52:35;;;;;;;39.40;20.33;;;5.20;1.00;;;;;;5054020;28;20450;-54
2020/12/10 12:55:01;;;;;;;40.40;20.73;;;5.30;1.00;;;;;;5054017;28;20760;-53